Heat Index [SAI AWOS/ASOS Display]_________FAA Disclaimer: "Not for use in aviation at this time______________" Untitled Document
Indianapolis Executive Airport IN
220
08:54
18/11/21
08
N/A
N/A
30.21
N/A
922
26(F), -3(C)
24(F), -4(C)
18 F
93%
CLR
10
N/A
N/A
N/A
08:54 zulu Wind 220 at 08 Knots, Altimeter 30.21
METAR KTYQ 210854Z AUTO 22008KT 10SM CLR M03/M04 A3021 A02
METAR:
FAA Disclaimer--Advisory Use ONLY, not for flight info-- 2/21/2009: Airport FBO 317-769-3288... New URL for smartphones... http://www.saiawos2.com/TYQ
INFO:
Wind Direction:
Wind Speed:
Wind Gust:
Wind Variable:
Altimeter:
Dens Alt:
Elev:
Temp:
Dwpt:
Wind Chill
Rel Humidity:
Ceiling:
Visibility:
Prsnt Wea:
PCPN:
Remarks:
How to read the WebPage